Portada
METAR-TAF:

METAR-TAF

Aeroports :

Parauapebas, Pará, Brasil

latitud: 06-07S, longitud: 050-00W, altitud: 621 m

Observació

L'informe es va fer fa 54 minuts, a les 20:00 UTC
Vent calma
Temperatura 27°C
Humitat 74%
Pressió 1011 hPa
Visibilitat: 7000 m
Escasses núvols a una alçada de 3000 ft

METAR: SBCJ 132000Z 00000KT 7000 FEW030 27/22 Q1011

Hora: 17:54 (20:54 UTC)

Pronòstic

L'informe es va fer fa 4 hores i 24 minuts, a les 16:30 UTC
Pronòstic vàlid del 13 a les 18 UTC al 14 a les 06 UTC
Vent 5 kt del Est
Visibilitat: 7000 m
Núvols disperses a una alçada de 2000 ft
Evolucionant progressivament
l' 13 a les 18 UTC al 13 a les 22 UTC
Vent 5 kt del Est/Nord-Est
Evolucionant progressivament
l' 14 a les 00 UTC al 14 a les 02 UTC
Vent 3 kt del Oest

TAF: SBCJ 131630Z 1318/1406 08005KT 7000 SCT020 TX27/1318Z TN21/1406Z BECMG 1318/1322 06005KT BECMG 1400/1402 27003KT RMK PGW

Observacions i pronòstics meteorològics de més de 4000 aeroports (METAR i TAF).

Les estacions disponibles són els punts grocs i vermells al mapa.

Posi el ratolí al punt desitjat per veure el nom de l'estació.

Feu clic per veure les observacions i els pronòstics meteorològics.

Per canviar el mapa: feu clic els botons verds amb una creu de color negre per apropar; al botó verd amb un guió per allunyar la imatge; o en les fletxes verdes per a mapes adjacents.


METAR-TAF: